FXMM/MSU METAR and TAF weather

Enter ICAO airport designator
Station Type Date Time Source
FXMM METAR 2020/04/08 12:00 UTC NOAA

FXMM 081200Z 36008KT 9999 FEW030 20/05 Q1023 NOSIG


Station Type Date Time Source
FXMM Decoded METAR 2020/04/08 12:00 UTC NOAA

Maseru / Moshoeshoe, Lesotho (FXMM) 29-27S 027-33E
Apr 08, 2020 - 08:00 AM EDT / 2020.04.08 1200 UTC
Wind: from the N (360 degrees) at 9 MPH (8 KT):0
Visibility: greater than 7 mile(s):0
Sky conditions: mostly clear
Temperature: 68 F (20 C)
Dew Point: 41 F (5 C)
Relative Humidity: 37%
Pressure (altimeter): 30.21 in. Hg (1023 hPa)
ob: FXMM 081200Z 36008KT 9999 FEW030 20/05 Q1023 NOSIG
cycle: 12

Station Type Date Time Source
FXMM TAF 2020/03/16 06:37 UTC NOAA

TAF FXMM 160400Z 1606/1706 00000KT 9999 FEW035 TX24/1612Z TN12/1703Z
BECMG 1608/1610 30010KT
BECMG 1612/1614 FEW035CB PROB30
TEMPO 1615/1618 4000 TSRA
BECMG 1620/1624 00000KT CAVOK

Example: see airport list